createdAt,value
2019-05-22T00:01:17.205Z,15.30
2019-05-22T00:03:47.657Z,15.20
2019-05-22T00:06:17.706Z,16.17
2019-05-22T00:08:48.276Z,16.37
2019-05-22T00:11:17.581Z,15.07
2019-05-22T00:13:47.752Z,18.17
2019-05-22T00:16:19.532Z,17.60
2019-05-22T00:18:50.359Z,18.47
2019-05-22T00:21:20.665Z,17.10
2019-05-22T00:23:52.296Z,17.07
2019-05-22T00:26:22.207Z,14.83
2019-05-22T00:28:51.487Z,16.33
2019-05-22T00:31:21.218Z,16.33
2019-05-22T00:33:50.475Z,16.87
2019-05-22T00:36:20.787Z,15.10
2019-05-22T00:38:50.164Z,16.97
2019-05-22T00:41:20.938Z,17.50
2019-05-22T00:43:51.729Z,15.70
2019-05-22T00:46:22.100Z,16.50
2019-05-22T00:48:52.218Z,16.50
2019-05-22T00:51:23.126Z,16.43
2019-05-22T00:54:10.140Z,16.77
2019-05-22T00:56:53.047Z,17.10
2019-05-22T00:59:28.835Z,17.17
2019-05-22T01:01:59.137Z,16.10
2019-05-22T01:04:38.802Z,15.50
2019-05-22T01:07:13.430Z,16.83
2019-05-22T01:09:46.691Z,16.50
2019-05-22T01:12:19.556Z,16.80
2019-05-22T01:14:50.683Z,15.67
2019-05-22T01:17:22.102Z,15.03
2019-05-22T01:19:54.592Z,14.37
2019-05-22T01:22:24.069Z,13.70
2019-05-22T01:24:54.769Z,14.07
2019-05-22T01:27:26.130Z,13.30
2019-05-22T01:29:57.109Z,13.33
2019-05-22T01:32:43.006Z,12.20
2019-05-22T01:35:13.869Z,13.40
2019-05-22T01:37:44.187Z,12.53
2019-05-22T01:40:20.326Z,12.47
2019-05-22T01:42:52.147Z,12.13
2019-05-22T01:45:22.688Z,12.60
2019-05-22T01:47:54.210Z,10.80
2019-05-22T01:50:38.317Z,11.80
2019-05-22T01:53:08.142Z,10.90
2019-05-22T01:55:38.268Z,10.43
2019-05-22T01:58:08.868Z,11.30
2019-05-22T02:00:39.443Z,10.73
2019-05-22T02:03:10.126Z,11.07
2019-05-22T02:05:38.897Z,11.40
2019-05-22T02:08:09.126Z,11.73
2019-05-22T02:10:40.129Z,12.83
2019-05-22T02:13:11.111Z,12.93
2019-05-22T02:15:41.591Z,13.20
2019-05-22T02:18:13.335Z,12.70
2019-05-22T02:20:42.683Z,14.87
2019-05-22T02:23:12.549Z,14.80
2019-05-22T02:25:41.714Z,15.07
2019-05-22T02:28:12.279Z,15.63
2019-05-22T02:30:43.334Z,16.60
2019-05-22T02:33:14.129Z,17.17
2019-05-22T02:35:43.154Z,17.57
2019-05-22T02:38:12.207Z,17.70
2019-05-22T02:40:42.760Z,18.63
2019-05-22T02:43:13.014Z,18.33
2019-05-22T02:45:41.918Z,19.97
2019-05-22T02:48:12.979Z,20.17
2019-05-22T02:50:41.962Z,20.27
2019-05-22T02:53:15.246Z,21.17
2019-05-22T02:55:44.205Z,20.33
2019-05-22T02:58:13.766Z,22.90
2019-05-22T03:01:05.468Z,20.17
2019-05-22T03:03:36.497Z,23.23
2019-05-22T03:06:08.850Z,22.10
2019-05-22T03:08:58.588Z,21.53
2019-05-22T03:11:35.237Z,22.30
2019-05-22T03:14:07.811Z,23.13
2019-05-22T03:16:51.718Z,22.83
2019-05-22T03:19:24.014Z,23.73
2019-05-22T03:21:52.735Z,21.80
2019-05-22T03:24:21.949Z,23.50
2019-05-22T03:26:51.735Z,21.43
2019-05-22T03:29:24.063Z,22.27
2019-05-22T03:31:52.808Z,20.53
2019-05-22T03:34:22.753Z,19.87
2019-05-22T03:36:52.297Z,20.57
2019-05-22T03:39:21.236Z,18.97
2019-05-22T03:41:50.095Z,19.00
2019-05-22T03:44:19.544Z,17.30
2019-05-22T03:46:48.619Z,17.97
2019-05-22T03:49:29.990Z,17.13
2019-05-22T03:51:52.788Z,18.57
2019-05-22T03:54:22.049Z,18.43
2019-05-22T03:56:50.486Z,18.67
2019-05-22T03:59:19.534Z,16.77
2019-05-22T04:01:47.988Z,17.10
2019-05-22T04:04:20.185Z,20.90
2019-05-22T04:06:51.940Z,18.07
2019-05-22T04:09:23.218Z,17.73
2019-05-22T04:11:54.974Z,17.40
2019-05-22T04:14:26.861Z,17.80
2019-05-22T04:16:55.516Z,18.07
2019-05-22T04:19:24.516Z,17.73
2019-05-22T04:21:53.720Z,17.90
2019-05-22T04:24:22.450Z,19.40
2019-05-22T04:26:53.550Z,18.10
2019-05-22T04:29:22.499Z,19.77
2019-05-22T04:31:55.500Z,18.03
2019-05-22T04:34:24.260Z,20.30
2019-05-22T04:36:54.021Z,19.60
2019-05-22T04:39:26.006Z,19.10
2019-05-22T04:41:56.602Z,17.60
2019-05-22T04:44:26.429Z,19.87
2019-05-22T04:46:56.228Z,17.70
2019-05-22T04:49:26.166Z,18.07
2019-05-22T04:51:55.763Z,18.10
2019-05-22T04:54:24.735Z,17.50
2019-05-22T04:56:53.451Z,16.60
2019-05-22T04:59:23.209Z,17.97
2019-05-22T05:01:51.623Z,17.53
2019-05-22T05:04:20.233Z,17.53
2019-05-22T05:06:49.867Z,19.00
2019-05-22T05:09:19.409Z,17.90
2019-05-22T05:11:48.101Z,18.43
2019-05-22T05:14:17.087Z,19.10
2019-05-22T05:16:47.399Z,18.07
2019-05-22T05:19:15.890Z,18.17
2019-05-22T05:21:44.893Z,18.90
2019-05-22T05:24:14.000Z,18.63
2019-05-22T05:26:43.485Z,17.67
2019-05-22T05:29:26.469Z,18.27
2019-05-22T05:31:55.158Z,16.37
2019-05-22T05:34:48.506Z,16.40
2019-05-22T05:37:19.032Z,15.40
2019-05-22T05:39:50.580Z,14.90
2019-05-22T05:42:19.240Z,15.57
2019-05-22T05:44:47.671Z,13.80
2019-05-22T05:47:17.456Z,13.80
2019-05-22T05:49:47.254Z,13.23
2019-05-22T05:52:17.134Z,14.20
2019-05-22T05:54:46.102Z,13.27
2019-05-22T05:57:34.150Z,16.30
2019-05-22T06:00:05.583Z,15.63
2019-05-22T06:02:34.451Z,15.40
2019-05-22T06:05:04.812Z,16.13
2019-05-22T06:07:33.486Z,15.80
2019-05-22T06:10:28.445Z,18.57
2019-05-22T06:12:57.770Z,18.07
2019-05-22T06:15:45.883Z,15.70
2019-05-22T06:18:24.201Z,16.83
2019-05-22T06:21:03.165Z,17.77
2019-05-22T06:23:31.837Z,15.13
2019-05-22T06:26:02.454Z,14.13
2019-05-22T06:28:37.782Z,13.60
2019-05-22T06:31:10.505Z,14.10
2019-05-22T06:33:39.378Z,14.07
2019-05-22T06:36:13.852Z,13.70
2019-05-22T06:38:57.730Z,14.40
2019-05-22T06:41:28.390Z,13.23
2019-05-22T06:44:20.116Z,13.47
2019-05-22T06:46:49.079Z,12.40
2019-05-22T06:49:36.266Z,15.67
2019-05-22T06:52:06.663Z,12.90
2019-05-22T06:54:35.478Z,13.50
2019-05-22T06:57:06.450Z,11.23
2019-05-22T06:59:34.998Z,11.80
2019-05-22T07:02:04.187Z,12.10
2019-05-22T07:04:33.464Z,11.90
2019-05-22T07:07:03.419Z,11.37
2019-05-22T07:09:32.891Z,13.13
2019-05-22T07:12:01.594Z,11.33
2019-05-22T07:14:31.864Z,10.67
2019-05-22T07:17:01.564Z,8.40
2019-05-22T07:19:30.075Z,9.87
2019-05-22T07:21:58.765Z,9.93
2019-05-22T07:24:27.896Z,8.67
2019-05-22T07:27:00.448Z,9.20
2019-05-22T07:29:29.157Z,8.50
2019-05-22T07:32:02.340Z,8.07
2019-05-22T07:34:31.267Z,8.33
2019-05-22T07:36:59.733Z,6.87
2019-05-22T07:39:28.519Z,7.17
2019-05-22T07:41:57.145Z,7.03
2019-05-22T07:44:25.978Z,6.40
2019-05-22T07:46:55.041Z,6.80
2019-05-22T07:49:23.626Z,6.63
2019-05-22T07:52:01.233Z,7.27
2019-05-22T07:54:23.821Z,6.67
2019-05-22T07:56:53.069Z,6.63
2019-05-22T07:59:22.012Z,5.83
2019-05-22T08:01:51.246Z,6.87
2019-05-22T08:04:20.883Z,5.27
2019-05-22T08:06:49.353Z,5.30
2019-05-22T08:09:20.015Z,5.53
2019-05-22T08:11:48.439Z,6.40
2019-05-22T08:14:18.672Z,6.60
2019-05-22T08:16:48.112Z,7.80
2019-05-22T08:19:17.094Z,9.80
2019-05-22T08:21:46.057Z,8.50
2019-05-22T08:24:15.168Z,8.17
2019-05-22T08:26:53.951Z,8.97
2019-05-22T08:29:15.112Z,9.20
2019-05-22T08:31:44.432Z,10.37
2019-05-22T08:34:14.225Z,10.27
2019-05-22T08:36:43.008Z,11.60
2019-05-22T08:39:12.948Z,10.53
2019-05-22T08:41:43.509Z,9.27
2019-05-22T08:44:16.616Z,8.83
2019-05-22T08:46:45.364Z,9.23
2019-05-22T08:49:14.478Z,9.37
2019-05-22T08:51:42.962Z,7.93
2019-05-22T08:54:12.965Z,10.73
2019-05-22T08:56:45.986Z,7.73
2019-05-22T08:59:19.353Z,8.70
2019-05-22T09:01:46.602Z,6.80
2019-05-22T09:04:16.414Z,8.50
2019-05-22T09:06:44.807Z,7.67
2019-05-22T09:09:13.434Z,8.60
2019-05-22T09:11:42.376Z,8.77
2019-05-22T09:14:11.787Z,9.70
2019-05-22T09:16:40.526Z,9.30
2019-05-22T09:19:10.024Z,10.10
2019-05-22T09:21:40.667Z,9.33
2019-05-22T09:24:13.063Z,10.73
2019-05-22T09:26:42.013Z,13.13
2019-05-22T09:29:10.678Z,12.63
2019-05-22T09:31:39.542Z,13.00
2019-05-22T09:34:09.270Z,12.10
2019-05-22T09:36:38.388Z,13.37
2019-05-22T09:39:07.591Z,14.63
2019-05-22T09:41:36.397Z,14.70
2019-05-22T09:44:05.073Z,13.60
2019-05-22T09:46:34.609Z,14.40
2019-05-22T09:49:03.101Z,14.33
2019-05-22T09:51:33.459Z,15.07
2019-05-22T09:54:03.373Z,14.30
2019-05-22T09:56:32.237Z,17.53
2019-05-22T09:59:01.519Z,15.30
2019-05-22T10:01:30.313Z,13.97
2019-05-22T10:03:58.933Z,15.07
2019-05-22T10:06:27.871Z,16.30
2019-05-22T10:08:56.282Z,14.97
2019-05-22T10:11:25.160Z,16.40
2019-05-22T10:13:54.149Z,15.87
2019-05-22T10:16:23.282Z,16.43
2019-05-22T10:18:53.616Z,17.17
2019-05-22T10:21:22.977Z,17.90
2019-05-22T10:23:51.462Z,16.53
2019-05-22T10:26:20.569Z,17.67
2019-05-22T10:28:49.363Z,17.70
2019-05-22T10:31:18.032Z,17.83
2019-05-22T10:33:51.246Z,18.23
2019-05-22T10:36:17.720Z,18.73
2019-05-22T10:38:46.113Z,17.33
2019-05-22T10:41:16.094Z,16.30
2019-05-22T10:43:45.209Z,18.40
2019-05-22T10:46:13.874Z,17.10
2019-05-22T10:48:42.785Z,19.00
2019-05-22T10:51:11.850Z,18.57
2019-05-22T10:53:41.059Z,19.20
2019-05-22T10:56:09.622Z,19.93
2019-05-22T10:58:38.428Z,18.37
2019-05-22T11:01:09.033Z,19.60
2019-05-22T11:03:37.864Z,20.63
2019-05-22T11:06:07.927Z,22.27
2019-05-22T11:08:36.509Z,20.17
2019-05-22T11:11:05.864Z,21.70
2019-05-22T11:13:34.709Z,21.80
2019-05-22T11:16:04.006Z,21.77
2019-05-22T11:18:33.297Z,21.73
2019-05-22T11:21:01.978Z,20.67
2019-05-22T11:23:30.854Z,22.10
2019-05-22T11:25:59.361Z,22.03
2019-05-22T11:28:29.374Z,19.43
2019-05-22T11:30:58.606Z,20.13
2019-05-22T11:33:27.200Z,19.67
2019-05-22T11:35:56.473Z,20.07
2019-05-22T11:38:25.491Z,22.90
2019-05-22T11:40:54.478Z,21.07
2019-05-22T11:43:22.884Z,22.90
2019-05-22T11:45:51.771Z,20.97
2019-05-22T11:48:20.771Z,20.23
2019-05-22T11:50:50.370Z,20.20
2019-05-22T11:53:18.945Z,19.53
2019-05-22T11:55:47.683Z,18.10
2019-05-22T11:58:17.661Z,19.40
2019-05-22T12:00:46.422Z,19.10
2019-05-22T12:03:15.714Z,18.17
2019-05-22T12:05:45.390Z,19.90
2019-05-22T12:08:14.345Z,18.57
2019-05-22T12:10:42.958Z,18.50
2019-05-22T12:13:12.318Z,17.50
2019-05-22T12:15:41.104Z,17.37
2019-05-22T12:18:11.225Z,17.53
2019-05-22T12:20:39.980Z,16.03
2019-05-22T12:23:08.480Z,15.37
2019-05-22T12:25:37.430Z,15.10
2019-05-22T12:28:05.942Z,15.30
2019-05-22T12:30:35.386Z,16.47
2019-05-22T12:33:12.737Z,15.90
2019-05-22T12:35:36.201Z,16.67
2019-05-22T12:38:07.018Z,17.83
2019-05-22T12:40:35.750Z,15.70
2019-05-22T12:43:05.383Z,14.87
2019-05-22T12:45:34.625Z,15.33
2019-05-22T12:48:04.248Z,15.30
2019-05-22T12:50:33.762Z,14.03
2019-05-22T12:53:05.869Z,15.60
2019-05-22T12:55:35.064Z,13.80
2019-05-22T12:58:05.118Z,13.10
2019-05-22T13:00:35.036Z,13.10
2019-05-22T13:03:04.854Z,11.97
2019-05-22T13:05:36.238Z,11.77
2019-05-22T13:08:06.108Z,13.13
2019-05-22T13:10:36.077Z,12.73
2019-05-22T13:13:05.052Z,12.03
2019-05-22T13:15:35.859Z,13.27
2019-05-22T13:18:06.941Z,14.17
2019-05-22T13:20:43.352Z,14.53
2019-05-22T13:23:09.427Z,12.70
2019-05-22T13:25:39.649Z,14.30
2019-05-22T13:28:10.848Z,13.57
2019-05-22T13:30:42.488Z,13.40
2019-05-22T13:33:16.193Z,12.63
2019-05-22T13:35:45.553Z,13.17
2019-05-22T13:38:15.258Z,12.50
2019-05-22T13:40:45.435Z,11.57
2019-05-22T13:43:15.380Z,12.20
2019-05-22T13:45:44.240Z,12.70
2019-05-22T13:48:13.076Z,11.90
2019-05-22T13:50:43.187Z,12.30
2019-05-22T13:53:16.066Z,13.60
2019-05-22T13:55:45.617Z,11.37
2019-05-22T13:58:15.897Z,11.40
2019-05-22T14:00:45.105Z,12.10
2019-05-22T14:03:14.961Z,10.80
2019-05-22T14:05:44.875Z,11.30
2019-05-22T14:08:14.017Z,12.13
2019-05-22T14:10:43.783Z,11.63
2019-05-22T14:13:13.124Z,13.33
2019-05-22T14:15:52.149Z,12.50
2019-05-22T14:18:13.273Z,13.13
2019-05-22T14:20:41.687Z,14.00
2019-05-22T14:23:10.159Z,11.50
2019-05-22T14:25:38.736Z,12.77
2019-05-22T14:28:08.627Z,13.30
2019-05-22T14:30:38.371Z,13.40
2019-05-22T14:33:07.014Z,11.30
2019-05-22T14:35:47.684Z,12.63
2019-05-22T14:38:09.388Z,10.67
2019-05-22T14:40:38.402Z,11.40
2019-05-22T14:43:08.591Z,11.20
2019-05-22T14:45:37.853Z,13.23
2019-05-22T14:48:06.785Z,13.30
2019-05-22T14:50:35.627Z,13.07
2019-05-22T14:53:04.798Z,10.23
2019-05-22T14:55:34.791Z,11.33
2019-05-22T14:58:05.223Z,11.80
2019-05-22T15:00:34.511Z,11.83
2019-05-22T15:03:03.657Z,10.43
2019-05-22T15:05:32.383Z,10.80
2019-05-22T15:08:01.209Z,12.30
2019-05-22T15:10:30.262Z,11.83
2019-05-22T15:12:59.146Z,11.00
2019-05-22T15:15:28.527Z,10.47
2019-05-22T15:17:57.317Z,11.60
2019-05-22T15:20:28.194Z,11.10
2019-05-22T15:22:57.267Z,11.47
2019-05-22T15:25:27.468Z,12.13
2019-05-22T15:27:56.848Z,10.93
2019-05-22T15:30:25.344Z,11.63
2019-05-22T15:32:54.036Z,12.80
2019-05-22T15:35:23.284Z,11.87
2019-05-22T15:37:53.629Z,11.77
2019-05-22T15:40:24.243Z,11.50
2019-05-22T15:42:53.328Z,11.83
2019-05-22T15:45:27.511Z,10.40
2019-05-22T15:48:01.438Z,11.47
2019-05-22T15:50:33.878Z,10.73
2019-05-22T15:53:08.923Z,12.57
2019-05-22T15:55:38.221Z,12.10
2019-05-22T15:58:08.700Z,12.17
2019-05-22T16:00:39.194Z,11.93
2019-05-22T16:03:12.122Z,11.30
2019-05-22T16:05:41.866Z,10.40
2019-05-22T16:08:10.644Z,10.30
2019-05-22T16:10:41.172Z,9.97
2019-05-22T16:13:13.386Z,9.70
2019-05-22T16:15:43.923Z,10.23
2019-05-22T16:18:13.727Z,9.63
2019-05-22T16:20:43.832Z,8.80
2019-05-22T16:23:12.895Z,8.47
2019-05-22T16:25:42.738Z,8.70
2019-05-22T16:28:13.565Z,8.90
2019-05-22T16:30:43.359Z,8.30
2019-05-22T16:33:14.225Z,7.90
2019-05-22T16:35:43.786Z,8.83
2019-05-22T16:38:12.924Z,7.83
2019-05-22T16:40:44.461Z,7.90
2019-05-22T16:43:13.166Z,8.00
2019-05-22T16:45:43.076Z,9.10
2019-05-22T16:48:27.278Z,8.20
2019-05-22T16:50:42.907Z,7.90
2019-05-22T16:53:13.616Z,7.20
2019-05-22T16:55:44.213Z,8.50
2019-05-22T16:58:13.310Z,7.30
2019-05-22T17:00:44.376Z,7.20
2019-05-22T17:03:16.369Z,8.17
2019-05-22T17:05:45.891Z,8.37
2019-05-22T17:08:14.931Z,7.40
2019-05-22T17:10:43.789Z,7.70
2019-05-22T17:13:14.734Z,7.70
2019-05-22T17:15:43.841Z,6.90
2019-05-22T17:18:14.910Z,7.53
2019-05-22T17:20:44.938Z,8.07
2019-05-22T17:23:13.812Z,7.50
2019-05-22T17:25:43.304Z,8.10
2019-05-22T17:28:13.126Z,8.50
2019-05-22T17:30:42.097Z,7.13
2019-05-22T17:33:11.906Z,7.00
2019-05-22T17:35:42.006Z,6.90
2019-05-22T17:38:11.342Z,7.53
2019-05-22T17:40:41.287Z,6.87
2019-05-22T17:43:11.346Z,7.17
2019-05-22T17:45:43.289Z,7.07
2019-05-22T17:48:14.473Z,6.83
2019-05-22T17:50:44.403Z,6.43
2019-05-22T17:53:13.145Z,7.80
2019-05-22T17:55:42.452Z,7.50
2019-05-22T17:58:12.060Z,6.87
2019-05-22T18:00:42.760Z,8.00
2019-05-22T18:03:12.003Z,6.63
2019-05-22T18:05:41.373Z,7.17
2019-05-22T18:08:10.672Z,6.93
2019-05-22T18:10:42.113Z,6.70
2019-05-22T18:13:12.068Z,8.40
2019-05-22T18:15:41.946Z,12.03
2019-05-22T18:18:11.470Z,8.27
2019-05-22T18:20:43.675Z,8.10
2019-05-22T18:23:11.613Z,7.50
2019-05-22T18:25:40.519Z,7.00
2019-05-22T18:28:10.494Z,6.43
2019-05-22T18:30:47.890Z,7.47
2019-05-22T18:33:17.335Z,6.37
2019-05-22T18:35:45.912Z,6.27
2019-05-22T18:38:14.838Z,6.90
2019-05-22T18:40:43.257Z,6.40
2019-05-22T18:43:11.762Z,5.50
2019-05-22T18:45:40.590Z,7.50
2019-05-22T18:48:09.999Z,7.30
2019-05-22T18:50:38.437Z,6.30
2019-05-22T18:53:07.618Z,7.20
2019-05-22T18:55:36.561Z,7.13
2019-05-22T18:58:05.798Z,7.73
2019-05-22T19:00:34.596Z,7.53
2019-05-22T19:03:03.673Z,7.23
2019-05-22T19:05:33.548Z,7.50
2019-05-22T19:08:02.357Z,7.57
2019-05-22T19:10:31.589Z,7.37
2019-05-22T19:13:00.316Z,7.30
2019-05-22T19:15:29.473Z,7.07
2019-05-22T19:17:58.860Z,6.80
2019-05-22T19:20:27.568Z,7.70
2019-05-22T19:23:00.933Z,7.77
2019-05-22T19:25:27.163Z,8.27
2019-05-22T19:27:55.650Z,10.10
2019-05-22T19:30:24.597Z,9.33
2019-05-22T19:32:53.711Z,8.57
2019-05-22T19:35:22.301Z,8.77
2019-05-22T19:37:51.025Z,10.27
2019-05-22T19:40:20.086Z,11.60
2019-05-22T19:42:49.226Z,9.47
2019-05-22T19:45:18.757Z,8.90
2019-05-22T19:47:52.727Z,8.20
2019-05-22T19:50:23.896Z,9.27
2019-05-22T19:52:53.715Z,10.00
2019-05-22T19:55:24.157Z,10.57
2019-05-22T19:57:53.936Z,11.20
2019-05-22T20:00:22.928Z,12.40
2019-05-22T20:02:52.707Z,15.80
2019-05-22T20:05:22.746Z,16.23
2019-05-22T20:07:51.894Z,15.10
2019-05-22T20:10:21.282Z,13.60
2019-05-22T20:12:49.859Z,14.03
2019-05-22T20:15:19.065Z,13.27
2019-05-22T20:17:49.563Z,14.87
2019-05-22T20:20:20.677Z,12.00
2019-05-22T20:22:50.055Z,10.93
2019-05-22T20:25:20.406Z,10.50
2019-05-22T20:27:50.558Z,9.00
2019-05-22T20:30:20.536Z,9.90
2019-05-22T20:32:49.276Z,9.87
2019-05-22T20:35:18.824Z,10.73
2019-05-22T20:37:48.253Z,10.17
2019-05-22T20:40:19.551Z,10.57
2019-05-22T20:42:48.017Z,11.50
2019-05-22T20:45:19.041Z,10.93
2019-05-22T20:47:49.376Z,11.33
2019-05-22T20:50:19.129Z,11.43
2019-05-22T20:52:49.191Z,12.23
2019-05-22T20:55:19.971Z,11.80
2019-05-22T20:57:50.613Z,11.70
2019-05-22T21:00:21.314Z,10.73
2019-05-22T21:02:53.197Z,11.70
2019-05-22T21:05:22.925Z,11.53
2019-05-22T21:07:54.464Z,12.30
2019-05-22T21:10:23.593Z,10.57
2019-05-22T21:12:53.497Z,11.00
2019-05-22T21:15:22.274Z,11.20
2019-05-22T21:17:53.094Z,11.73
2019-05-22T21:20:24.621Z,10.47
2019-05-22T21:22:53.660Z,11.07
2019-05-22T21:25:22.615Z,9.70
2019-05-22T21:27:51.856Z,9.83
2019-05-22T21:30:21.520Z,10.77
2019-05-22T21:32:50.117Z,10.07
2019-05-22T21:35:19.901Z,11.17
2019-05-22T21:37:48.961Z,9.93
2019-05-22T21:40:20.161Z,9.40
2019-05-22T21:42:50.980Z,9.90
2019-05-22T21:45:20.767Z,10.03
2019-05-22T21:47:49.395Z,9.10
2019-05-22T21:50:19.095Z,9.13
2019-05-22T21:52:47.839Z,10.27
2019-05-22T21:55:18.394Z,10.40
2019-05-22T21:57:47.441Z,10.43
2019-05-22T22:00:26.735Z,14.20
2019-05-22T22:02:57.012Z,12.17
2019-05-22T22:05:25.439Z,12.47
2019-05-22T22:07:53.981Z,11.97
2019-05-22T22:10:22.746Z,11.10
2019-05-22T22:12:54.066Z,11.23
2019-05-22T22:15:22.606Z,9.73
2019-05-22T22:17:52.262Z,10.10
2019-05-22T22:20:22.497Z,11.53
2019-05-22T22:22:51.588Z,11.57
2019-05-22T22:25:23.958Z,10.37
2019-05-22T22:27:53.218Z,10.70
2019-05-22T22:30:25.249Z,9.90
2019-05-22T22:32:55.907Z,10.47
2019-05-22T22:35:24.474Z,9.60
2019-05-22T22:37:53.659Z,10.17
2019-05-22T22:40:24.338Z,10.00
2019-05-22T22:42:55.341Z,10.10
2019-05-22T22:45:27.942Z,9.83
2019-05-22T22:47:57.315Z,10.37
2019-05-22T22:50:27.026Z,10.23
2019-05-22T22:52:56.441Z,9.43
2019-05-22T22:55:26.984Z,9.60
2019-05-22T22:57:55.880Z,10.30
2019-05-22T23:00:26.770Z,8.90
2019-05-22T23:02:58.870Z,10.27
2019-05-22T23:05:27.621Z,9.27
2019-05-22T23:07:57.000Z,9.87
2019-05-22T23:10:26.886Z,10.00
2019-05-22T23:12:56.793Z,10.80
2019-05-22T23:15:26.931Z,9.90
2019-05-22T23:17:55.777Z,11.00
2019-05-22T23:20:23.401Z,11.00
2019-05-22T23:22:52.552Z,9.97
2019-05-22T23:25:21.133Z,10.77
2019-05-22T23:27:50.731Z,11.40
2019-05-22T23:30:20.962Z,10.40
2019-05-22T23:32:51.105Z,11.03
2019-05-22T23:35:22.753Z,10.63
2019-05-22T23:37:51.638Z,11.57
2019-05-22T23:40:23.191Z,10.67
2019-05-22T23:42:52.451Z,11.03
2019-05-22T23:45:22.982Z,11.87
2019-05-22T23:48:00.972Z,11.43
2019-05-22T23:50:31.937Z,11.00
2019-05-22T23:53:00.875Z,10.70
2019-05-22T23:55:30.437Z,11.37
2019-05-22T23:57:59.518Z,11.67
